Time;durP1;ratioP1;P1;durP2;ratioP2;P2;SDS_P1;SDS_P2;PMS_P1;PMS_P2;Temp;Humidity;BMP_temperature;BMP_pressure;BME280_temperature;BME280_humidity;BME280_pressure;Samples;Min_cycle;Max_cycle;Signal;HPM_P1;HPM_P2
2023/09/04 00:01:21;;;;;;;2.55;2.17;;;17.10;76.30;;;;;;5109617;28;20098;-34
2023/09/04 00:03:47;;;;;;;3.38;2.10;;;17.10;76.30;;;;;;5109632;28;20511;-33
2023/09/04 00:06:13;;;;;;;2.53;1.88;;;17.10;76.40;;;;;;5109614;28;20535;-32
2023/09/04 00:08:38;;;;;;;2.17;1.98;;;17.10;76.40;;;;;;5109820;28;20030;-38
2023/09/04 00:11:04;;;;;;;2.90;2.00;;;17.10;76.40;;;;;;5109759;28;20020;-32
2023/09/04 00:13:29;;;;;;;3.40;2.22;;;17.10;76.40;;;;;;5109281;28;20027;-34
2023/09/04 00:15:56;;;;;;;2.17;2.03;;;17.10;76.40;;;;;;5109557;28;20790;-34
2023/09/04 00:18:22;;;;;;;2.33;2.13;;;17.00;76.40;;;;;;5109472;28;20035;-33
2023/09/04 00:20:48;;;;;;;2.63;2.33;;;17.00;76.50;;;;;;5109321;28;20023;-33
2023/09/04 00:23:14;;;;;;;2.35;2.15;;;17.00;76.50;;;;;;5109227;28;20026;-33
2023/09/04 00:25:39;;;;;;;2.20;1.92;;;17.00;77.10;;;;;;5113407;28;20483;-33
2023/09/04 00:28:05;;;;;;;2.22;1.95;;;17.00;76.50;;;;;;5094880;28;20262;-34
2023/09/04 00:30:31;;;;;;;2.15;1.90;;;17.00;76.60;;;;;;5113432;28;20039;-34
2023/09/04 00:32:57;;;;;;;2.70;2.28;;;16.90;76.60;;;;;;5113320;28;20493;-34
2023/09/04 00:35:22;;;;;;;2.67;2.28;;;16.90;76.60;;;;;;5113253;28;20026;-35
2023/09/04 00:37:48;;;;;;;3.28;2.20;;;16.90;76.60;;;;;;5113261;28;20516;-35
2023/09/04 00:40:14;;;;;;;2.33;2.13;;;16.90;76.60;;;;;;5113399;28;20504;-35
2023/09/04 00:42:39;;;;;;;2.50;2.30;;;16.90;76.70;;;;;;5112899;28;20050;-34
2023/09/04 00:45:07;;;;;;;3.90;1.90;;;16.90;76.80;;;;;;5113006;28;20217;-34
2023/09/04 00:47:32;;;;;;;2.42;2.22;;;16.80;76.80;;;;;;5112727;28;20016;-35
2023/09/04 00:49:59;;;;;;;2.08;1.92;;;16.80;76.80;;;;;;5112698;28;20104;-33
2023/09/04 00:52:25;;;;;;;2.55;2.30;;;16.80;76.90;;;;;;5112956;28;20057;-33
2023/09/04 00:54:52;;;;;;;3.53;2.53;;;16.80;77.00;;;;;;5112845;28;20473;-34
2023/09/04 00:57:18;;;;;;;2.70;2.20;;;16.80;77.00;;;;;;5112921;28;20019;-33
2023/09/04 00:59:45;;;;;;;2.88;2.60;;;16.80;77.00;;;;;;5112733;28;20020;-34
2023/09/04 01:02:14;;;;;;;2.38;2.17;;;16.80;77.10;;;;;;5112486;28;20024;-34
2023/09/04 01:04:39;;;;;;;2.60;2.40;;;16.70;77.10;;;;;;5112662;28;20015;-34
2023/09/04 01:07:05;;;;;;;2.85;2.28;;;16.70;77.10;;;;;;5112477;28;20019;-36
2023/09/04 01:09:31;;;;;;;2.60;2.40;;;16.70;77.10;;;;;;5112402;28;20366;-32
2023/09/04 01:12:06;;;;;;;3.30;2.38;;;16.70;77.10;;;;;;5112244;28;20469;-34
2023/09/04 01:14:34;;;;;;;2.63;2.22;;;16.70;77.20;;;;;;5112610;28;20386;-37
2023/09/04 01:17:00;;;;;;;3.25;2.20;;;16.70;77.20;;;;;;5112338;28;20436;-35
2023/09/04 01:19:26;;;;;;;2.80;2.58;;;16.60;77.20;;;;;;5112657;28;20514;-30
2023/09/04 01:21:52;;;;;;;2.97;2.28;;;16.60;77.30;;;;;;5112318;28;20099;-34
2023/09/04 01:24:18;;;;;;;2.90;2.60;;;16.60;77.30;;;;;;5112156;28;20098;-28
2023/09/04 01:26:48;;;;;;;2.78;2.35;;;16.60;77.30;;;;;;5112247;28;20046;-30
2023/09/04 01:29:25;;;;;;;2.72;2.53;;;16.60;77.40;;;;;;5111942;28;20020;-34
2023/09/04 01:32:07;;;;;;;3.03;2.72;;;16.60;77.50;;;;;;5112039;28;20388;-34
2023/09/04 01:34:44;;;;;;;3.00;2.45;;;16.50;77.50;;;;;;5111936;28;20393;-32
2023/09/04 01:37:11;;;;;;;3.17;2.72;;;16.50;77.60;;;;;;5111620;28;20024;-34
2023/09/04 01:39:38;;;;;;;2.75;2.55;;;16.50;77.60;;;;;;5111908;28;20187;-35
2023/09/04 01:42:03;;;;;;;2.38;2.20;;;16.50;77.60;;;;;;5111298;28;20019;-33
2023/09/04 01:44:29;;;;;;;4.60;2.90;;;16.50;77.70;;;;;;5111680;28;20031;-33
2023/09/04 01:46:54;;;;;;;3.58;2.90;;;16.50;77.80;;;;;;5111710;28;20106;-37
2023/09/04 01:49:20;;;;;;;2.80;2.60;;;16.40;77.90;;;;;;5111742;28;20572;-35
2023/09/04 01:51:46;;;;;;;3.08;2.70;;;16.40;78.00;;;;;;5111822;28;20400;-34
2023/09/04 01:54:12;;;;;;;2.95;2.75;;;16.40;78.00;;;;;;5111651;28;20024;-38
2023/09/04 01:56:37;;;;;;;2.75;2.55;;;16.40;78.10;;;;;;5111981;28;20048;-35
2023/09/04 01:59:03;;;;;;;3.05;2.75;;;16.40;78.10;;;;;;5111653;28;20016;-30
2023/09/04 02:01:29;;;;;;;2.97;2.67;;;16.40;78.10;;;;;;5111505;28;20020;-32
2023/09/04 02:03:57;;;;;;;3.05;2.75;;;16.40;78.20;;;;;;5111577;28;20019;-34
2023/09/04 02:06:24;;;;;;;3.53;3.10;;;16.40;78.30;;;;;;5111415;28;20020;-33
2023/09/04 02:08:49;;;;;;;3.85;3.10;;;16.40;78.30;;;;;;5111307;28;20024;-34
2023/09/04 02:11:15;;;;;;;3.53;3.22;;;16.40;78.30;;;;;;5111651;28;20024;-29
2023/09/04 02:13:40;;;;;;;4.35;2.92;;;16.40;78.40;;;;;;5111252;28;20026;-36
2023/09/04 02:16:06;;;;;;;3.78;3.20;;;16.40;78.50;;;;;;5111295;28;20027;-31
2023/09/04 02:18:32;;;;;;;3.22;2.70;;;16.30;78.50;;;;;;5110990;28;20027;-36
2023/09/04 02:21:00;;;;;;;4.70;3.17;;;16.30;78.50;;;;;;5111073;28;20027;-34
2023/09/04 02:23:25;;;;;;;3.58;2.88;;;16.30;78.50;;;;;;5111107;28;20476;-35
2023/09/04 02:25:51;;;;;;;3.50;3.00;;;16.30;78.60;;;;;;5111208;28;20028;-31
2023/09/04 02:28:17;;;;;;;3.45;3.15;;;16.30;78.60;;;;;;5111008;28;20388;-33
2023/09/04 02:30:42;;;;;;;3.67;3.08;;;16.30;78.70;;;;;;5111540;28;20361;-31
2023/09/04 02:33:08;;;;;;;3.05;2.75;;;16.30;78.70;;;;;;5110806;28;20028;-34
2023/09/04 02:35:34;;;;;;;4.80;3.30;;;16.30;78.70;;;;;;5110786;28;20031;-37
2023/09/04 02:38:00;;;;;;;3.63;3.10;;;16.20;78.70;;;;;;5110769;28;20034;-32
2023/09/04 02:40:26;;;;;;;3.53;3.03;;;16.20;78.80;;;;;;5110602;28;20138;-32
2023/09/04 02:42:51;;;;;;;4.05;3.40;;;16.20;78.90;;;;;;5110732;28;20095;-34
2023/09/04 02:45:17;;;;;;;4.22;3.35;;;16.10;78.90;;;;;;5110872;28;20015;-34
2023/09/04 02:47:43;;;;;;;3.63;3.25;;;16.10;79.00;;;;;;5110356;28;20069;-30
2023/09/04 02:50:09;;;;;;;3.60;3.30;;;16.10;79.00;;;;;;5110709;28;20027;-33
2023/09/04 02:52:35;;;;;;;4.45;3.60;;;16.10;79.00;;;;;;5092156;28;20497;-34
2023/09/04 02:55:02;;;;;;;4.47;3.38;;;16.00;79.10;;;;;;5110686;28;20055;-32
2023/09/04 02:57:30;;;;;;;5.00;3.55;;;16.00;79.20;;;;;;5110546;28;20073;-34
2023/09/04 02:59:55;;;;;;;4.65;3.40;;;16.00;79.20;;;;;;5110382;28;20048;-32
2023/09/04 03:02:22;;;;;;;4.30;3.75;;;16.00;79.20;;;;;;5110426;28;20045;-34
2023/09/04 03:04:53;;;;;;;3.90;3.60;;;16.00;79.30;;;;;;5110195;28;20024;-35
2023/09/04 03:07:18;;;;;;;4.75;4.00;;;16.00;79.30;;;;;;5110357;28;20440;-33
2023/09/04 03:09:44;;;;;;;4.13;3.72;;;16.00;79.30;;;;;;5110336;28;20020;-33
2023/09/04 03:12:09;;;;;;;4.85;3.53;;;15.90;79.30;;;;;;5110188;28;20020;-36
2023/09/04 03:14:35;;;;;;;4.30;3.90;;;15.90;79.40;;;;;;5110245;28;20031;-32
2023/09/04 03:17:01;;;;;;;4.00;3.60;;;15.90;79.50;;;;;;5110219;28;20032;-36
2023/09/04 03:19:27;;;;;;;4.70;4.20;;;15.90;79.60;;;;;;5110097;28;20031;-31
2023/09/04 03:21:53;;;;;;;5.63;4.20;;;15.80;79.50;;;;;;5109990;28;20020;-34
2023/09/04 03:24:20;;;;;;;4.13;3.72;;;15.90;79.70;;;;;;5109789;28;20411;-38
2023/09/04 03:26:45;;;;;;;4.80;3.75;;;15.80;79.60;;;;;;5110093;28;20096;-34
2023/09/04 03:29:11;;;;;;;4.20;3.80;;;15.80;79.70;;;;;;5109987;28;20031;-32
2023/09/04 03:31:36;;;;;;;4.40;4.00;;;15.80;79.70;;;;;;5110301;28;20077;-35
2023/09/04 03:34:02;;;;;;;6.80;4.18;;;15.80;79.80;;;;;;5110165;28;20028;-36
2023/09/04 03:36:28;;;;;;;4.57;4.00;;;15.80;79.80;;;;;;5110060;28;20024;-38
2023/09/04 03:38:53;;;;;;;4.10;3.70;;;15.80;79.80;;;;;;5109947;28;20512;-34
2023/09/04 03:41:19;;;;;;;6.32;4.25;;;15.80;79.80;;;;;;5109828;28;20028;-32
2023/09/04 03:43:44;;;;;;;5.53;4.00;;;15.80;79.80;;;;;;5091721;28;20054;-30
2023/09/04 03:46:13;;;;;;;4.60;4.03;;;15.80;79.80;;;;;;5109759;28;20024;-35
2023/09/04 03:48:39;;;;;;;4.90;4.40;;;15.70;79.90;;;;;;5109817;28;20031;-37
2023/09/04 03:51:04;;;;;;;6.13;4.15;;;15.70;79.90;;;;;;5091675;28;20541;-35
2023/09/04 03:53:30;;;;;;;5.85;4.35;;;15.70;80.30;;;;;;5109780;28;20507;-35
2023/09/04 03:56:03;;;;;;;4.60;4.20;;;15.70;80.00;;;;;;5109860;28;20019;-35
2023/09/04 03:58:29;;;;;;;;;;;15.70;80.10;;;;;;5110768;28;20008;-35
2023/09/04 04:00:58;;;;;;;4.57;4.13;;;15.70;80.00;;;;;;5114476;28;19908;-38
2023/09/04 04:03:23;;;;;;;5.10;4.60;;;15.70;80.10;;;;;;5113764;28;20024;-33
2023/09/04 04:05:49;;;;;;;4.95;4.03;;;15.60;80.10;;;;;;5114129;28;20012;-34
2023/09/04 04:08:14;;;;;;;5.05;4.50;;;15.60;80.10;;;;;;5113820;28;20012;-36
2023/09/04 04:10:40;;;;;;;5.88;4.40;;;15.60;80.10;;;;;;5113764;28;20492;-34
2023/09/04 04:13:06;;;;;;;6.05;4.53;;;15.60;80.20;;;;;;5113964;28;20057;-35
2023/09/04 04:15:31;;;;;;;5.35;4.72;;;15.60;80.20;;;;;;5113609;28;20594;-32
2023/09/04 04:17:57;;;;;;;6.32;4.57;;;15.60;80.90;;;;;;5113780;28;20103;-34
2023/09/04 04:20:22;;;;;;;5.20;4.70;;;15.60;80.30;;;;;;5113486;28;20453;-33
2023/09/04 04:22:48;;;;;;;4.60;4.20;;;15.60;80.30;;;;;;5113606;28;20472;-31
2023/09/04 04:25:14;;;;;;;5.82;4.63;;;15.60;80.30;;;;;;5094994;28;20458;-37
2023/09/04 04:27:41;;;;;;;4.55;4.15;;;15.60;80.30;;;;;;5113277;28;20027;-32
2023/09/04 04:30:10;;;;;;;5.68;4.50;;;15.60;80.30;;;;;;5113447;28;20016;-30
2023/09/04 04:32:36;;;;;;;4.68;4.28;;;15.60;80.40;;;;;;5113442;28;20024;-30
2023/09/04 04:35:01;;;;;;;5.00;4.50;;;15.60;80.40;;;;;;5113285;28;20030;-31
2023/09/04 04:37:27;;;;;;;5.57;4.43;;;15.50;80.40;;;;;;5113150;28;20027;-28
2023/09/04 04:39:53;;;;;;;6.05;4.97;;;15.50;80.50;;;;;;5113023;28;20024;-34
2023/09/04 04:42:18;;;;;;;5.60;4.65;;;15.60;80.50;;;;;;5113019;28;20507;-38
2023/09/04 04:44:44;;;;;;;5.40;4.80;;;15.50;80.40;;;;;;5112991;28;20026;-31
2023/09/04 04:47:09;;;;;;;5.30;4.65;;;15.50;80.50;;;;;;5113092;28;20069;-34
2023/09/04 04:49:35;;;;;;;6.47;4.85;;;15.50;80.50;;;;;;5112901;28;20088;-34
2023/09/04 04:52:00;;;;;;;4.43;4.03;;;15.50;80.50;;;;;;5112934;28;20019;-33
2023/09/04 04:54:26;;;;;;;4.38;3.90;;;15.50;80.50;;;;;;5112708;28;20401;-33
2023/09/04 04:56:52;;;;;;;4.40;4.00;;;15.50;81.10;;;;;;5112913;28;20449;-30
2023/09/04 04:59:18;;;;;;;5.65;4.50;;;15.50;80.40;;;;;;5112654;28;20020;-34
2023/09/04 05:01:44;;;;;;;5.50;4.35;;;15.50;80.50;;;;;;5112705;28;20050;-29
2023/09/04 05:04:10;;;;;;;4.43;4.00;;;15.50;80.40;;;;;;5112525;28;20027;-32
2023/09/04 05:06:35;;;;;;;5.60;3.95;;;15.50;80.40;;;;;;5113014;28;20024;-42
2023/09/04 05:09:01;;;;;;;4.40;4.00;;;15.60;80.50;;;;;;5112496;28;20507;-39
2023/09/04 05:11:27;;;;;;;4.97;4.03;;;15.60;80.50;;;;;;5112388;28;20494;-42
2023/09/04 05:13:53;;;;;;;4.72;3.85;;;15.60;80.50;;;;;;5112338;28;20057;-33
2023/09/04 05:16:18;;;;;;;4.82;4.32;;;15.60;80.50;;;;;;5112875;28;20044;-35
2023/09/04 05:18:44;;;;;;;4.95;4.20;;;15.60;80.50;;;;;;5093870;28;20024;-35
2023/09/04 05:21:10;;;;;;;5.25;4.45;;;15.60;80.50;;;;;;5112104;28;20232;-34
2023/09/04 05:23:36;;;;;;;4.90;4.45;;;15.60;80.40;;;;;;5112230;28;20519;-33
2023/09/04 05:26:02;;;;;;;5.78;4.07;;;15.60;80.40;;;;;;5112254;28;20027;-29
2023/09/04 05:28:28;;;;;;;6.10;4.40;;;15.60;80.30;;;;;;5112426;28;20016;-32
2023/09/04 05:30:54;;;;;;;4.57;4.15;;;15.60;80.30;;;;;;5112112;28;20500;-29
2023/09/04 05:33:20;;;;;;;4.72;4.10;;;15.70;80.30;;;;;;5111887;28;20023;-29
2023/09/04 05:35:55;;;;;;;6.40;4.07;;;15.70;80.30;;;;;;5111901;28;20030;-29
2023/09/04 05:38:20;;;;;;;4.40;4.00;;;15.70;80.30;;;;;;5112063;28;20092;-31
2023/09/04 05:40:49;;;;;;;5.65;5.03;;;15.70;80.30;;;;;;5111752;28;20044;-29
2023/09/04 05:43:14;;;;;;;6.93;5.90;;;15.70;80.20;;;;;;5111941;28;20027;-29
2023/09/04 05:45:40;;;;;;;6.30;5.03;;;15.70;80.80;;;;;;5111699;28;20405;-29
2023/09/04 05:48:06;;;;;;;4.82;4.32;;;15.80;80.20;;;;;;5111764;28;20577;-33
2023/09/04 05:50:32;;;;;;;6.25;4.50;;;15.80;80.10;;;;;;5111773;28;20282;-30
2023/09/04 05:52:57;;;;;;;5.20;4.70;;;15.90;80.10;;;;;;5093210;28;20019;-31
2023/09/04 05:55:23;;;;;;;4.97;4.57;;;15.90;80.10;;;;;;5111387;28;20016;-29
2023/09/04 05:57:48;;;;;;;4.78;4.28;;;15.90;80.10;;;;;;5111586;28;20176;-28
2023/09/04 06:00:14;;;;;;;5.82;4.38;;;15.90;80.10;;;;;;5111189;28;20020;-34
2023/09/04 06:02:39;;;;;;;4.80;4.18;;;15.90;80.00;;;;;;5111443;28;20028;-43
2023/09/04 06:05:05;;;;;;;4.35;3.95;;;16.00;80.10;;;;;;5111360;28;20095;-39
2023/09/04 06:07:32;;;;;;;5.72;4.40;;;16.00;80.10;;;;;;5111360;28;20073;-45
2023/09/04 06:09:57;;;;;;;5.88;4.55;;;16.00;80.00;;;;;;5111137;28;20430;-43
2023/09/04 06:12:23;;;;;;;4.47;4.07;;;16.10;80.10;;;;;;5111112;28;20027;-33
2023/09/04 06:14:48;;;;;;;4.97;4.47;;;16.10;80.00;;;;;;5111056;28;20324;-34
2023/09/04 06:17:14;;;;;;;6.50;4.43;;;16.10;80.00;;;;;;5111211;28;20026;-35
2023/09/04 06:19:39;;;;;;;5.68;4.80;;;16.10;80.00;;;;;;5110730;28;20058;-36
2023/09/04 06:22:05;;;;;;;5.78;4.28;;;16.20;80.00;;;;;;5110684;28;20465;-33
2023/09/04 06:24:32;;;;;;;5.20;4.70;;;16.20;79.90;;;;;;5110893;28;20469;-35
2023/09/04 06:26:58;;;;;;;4.90;4.50;;;16.30;79.90;;;;;;5111212;28;20382;-35
2023/09/04 06:29:23;;;;;;;4.68;4.18;;;16.30;79.90;;;;;;5111223;28;20049;-34
2023/09/04 06:31:49;;;;;;;5.20;4.70;;;16.30;79.80;;;;;;5110889;28;20134;-35
2023/09/04 06:34:15;;;;;;;5.20;4.70;;;16.40;79.80;;;;;;5111023;28;20016;-35
2023/09/04 06:36:41;;;;;;;5.20;4.60;;;16.40;79.80;;;;;;5092394;28;20088;-35
2023/09/04 06:39:06;;;;;;;6.53;4.78;;;16.50;79.80;;;;;;5110776;28;20031;-34
2023/09/04 06:41:32;;;;;;;6.82;5.22;;;16.50;79.70;;;;;;5110638;28;20456;-35
2023/09/04 06:43:58;;;;;;;5.35;4.85;;;16.50;79.70;;;;;;5092107;28;20015;-32
2023/09/04 06:46:24;;;;;;;6.38;4.60;;;16.60;79.70;;;;;;5110708;28;20473;-40
2023/09/04 06:48:49;;;;;;;6.60;5.40;;;16.70;79.60;;;;;;5092342;28;20038;-40
2023/09/04 06:51:18;;;;;;;7.25;5.15;;;16.70;79.50;;;;;;5110207;28;20024;-43
2023/09/04 06:53:43;;;;;;;5.85;4.97;;;16.70;79.50;;;;;;5110305;28;20023;-44
2023/09/04 06:56:09;;;;;;;5.32;4.82;;;16.80;79.40;;;;;;5110359;28;20153;-43
2023/09/04 06:58:35;;;;;;;5.03;4.50;;;16.90;79.40;;;;;;5110337;28;20148;-42
2023/09/04 07:01:04;;;;;;;5.53;4.97;;;16.90;79.30;;;;;;5110808;28;20724;-38
2023/09/04 07:03:30;;;;;;;6.20;5.47;;;17.00;79.20;;;;;;5110569;28;20020;-31
2023/09/04 07:05:56;;;;;;;5.70;4.88;;;17.00;79.10;;;;;;5110405;28;20028;-28
2023/09/04 07:08:22;;;;;;;7.55;5.10;;;17.10;79.10;;;;;;5110723;28;20477;-31
2023/09/04 07:10:48;;;;;;;5.60;4.72;;;17.10;79.00;;;;;;5110553;28;20012;-32
2023/09/04 07:13:15;;;;;;;6.20;4.95;;;17.20;79.00;;;;;;5110285;28;20020;-34
2023/09/04 07:15:44;;;;;;;6.30;5.45;;;17.20;78.90;;;;;;5109950;28;20031;-30
2023/09/04 07:18:10;;;;;;;5.20;4.70;;;17.30;78.90;;;;;;5109954;28;20069;-28
2023/09/04 07:20:36;;;;;;;5.18;4.68;;;17.30;78.80;;;;;;5109619;28;20119;-26
2023/09/04 07:23:01;;;;;;;5.68;5.10;;;17.40;78.70;;;;;;5109864;28;20115;-31
2023/09/04 07:25:27;;;;;;;5.25;4.70;;;17.40;78.60;;;;;;5110211;28;20024;-30
2023/09/04 07:27:52;;;;;;;5.10;4.60;;;17.50;78.60;;;;;;5109671;28;20040;-43
2023/09/04 07:30:18;;;;;;;5.45;4.88;;;17.60;78.60;;;;;;5109847;28;20032;-40
2023/09/04 07:32:43;;;;;;;6.05;4.90;;;17.60;78.50;;;;;;5109707;28;20023;-43
2023/09/04 07:35:10;;;;;;;5.38;4.63;;;17.70;78.50;;;;;;5109169;28;20039;-41
2023/09/04 07:37:35;;;;;;;5.60;5.10;;;17.70;78.40;;;;;;5109612;28;20481;-43
2023/09/04 07:40:04;;;;;;;6.40;4.80;;;17.80;78.30;;;;;;5109569;28;20032;-40
2023/09/04 07:42:29;;;;;;;6.32;4.55;;;17.80;78.30;;;;;;5109547;28;20008;-42
2023/09/04 07:44:55;;;;;;;5.30;4.80;;;17.80;78.20;;;;;;5109536;28;20490;-42
2023/09/04 07:47:20;;;;;;;5.47;4.63;;;17.90;78.10;;;;;;5109602;28;20566;-40
2023/09/04 07:49:46;;;;;;;5.35;4.15;;;18.00;78.10;;;;;;5109734;28;20404;-39
2023/09/04 07:52:12;;;;;;;5.88;4.50;;;18.00;77.80;;;;;;5109715;28;20424;-44
2023/09/04 07:54:37;;;;;;;5.82;4.50;;;18.10;77.90;;;;;;5091210;28;20028;-44
2023/09/04 07:57:05;;;;;;;6.65;4.82;;;18.20;77.80;;;;;;5091341;28;20034;-44
2023/09/04 07:59:30;;;;;;;5.18;4.38;;;18.30;77.60;;;;;;5109431;28;20278;-40
2023/09/04 08:01:56;;;;;;;5.32;4.40;;;18.40;77.60;;;;;;5109943;28;20443;-43
2023/09/04 08:04:22;;;;;;;4.13;3.70;;;18.50;77.40;;;;;;5109403;28;20016;-44
2023/09/04 08:06:47;;;;;;;4.72;3.97;;;18.60;77.30;;;;;;5091004;28;20111;-38
2023/09/04 08:09:14;;;;;;;4.13;3.75;;;18.70;77.20;;;;;;5109266;28;20032;-42
2023/09/04 08:11:39;;;;;;;4.70;4.00;;;18.80;77.10;;;;;;5109226;28;20030;-42
2023/09/04 08:14:05;;;;;;;5.55;4.00;;;18.80;76.90;;;;;;5109414;28;20028;-42
2023/09/04 08:16:31;;;;;;;5.13;4.10;;;18.90;76.80;;;;;;5109299;28;20393;-43
2023/09/04 08:18:56;;;;;;;4.18;3.78;;;19.00;76.60;;;;;;5109117;28;20028;-43
2023/09/04 08:21:22;;;;;;;5.40;4.25;;;19.00;76.40;;;;;;5109408;28;20023;-45
2023/09/04 08:23:47;;;;;;;6.82;4.60;;;19.10;76.40;;;;;;5109046;28;20027;-38
2023/09/04 08:26:14;;;;;;;4.38;3.97;;;19.20;76.30;;;;;;5109047;28;20453;-43
2023/09/04 08:28:40;;;;;;;8.75;4.47;;;19.20;76.20;;;;;;5109527;28;20046;-44
2023/09/04 08:31:07;;;;;;;5.70;4.40;;;19.30;76.10;;;;;;5109158;28;20106;-44
2023/09/04 08:33:33;;;;;;;7.68;4.28;;;19.30;76.00;;;;;;5109165;28;20038;-43
2023/09/04 08:35:59;;;;;;;5.32;4.10;;;19.40;75.90;;;;;;5109115;28;20028;-43
2023/09/04 08:38:24;;;;;;;4.82;4.32;;;19.40;75.80;;;;;;5109134;28;20157;-44
2023/09/04 08:40:50;;;;;;;4.57;4.13;;;19.60;75.80;;;;;;5109123;28;20028;-42
2023/09/04 08:43:16;;;;;;;4.90;4.03;;;19.60;75.60;;;;;;5109155;28;20055;-41
2023/09/04 08:45:43;;;;;;;4.45;3.78;;;19.70;75.50;;;;;;5111577;28;20255;-43
2023/09/04 08:48:11;;;;;;;4.60;4.05;;;19.70;75.40;;;;;;5112948;28;20440;-44
2023/09/04 08:50:37;;;;;;;5.80;4.50;;;19.80;75.40;;;;;;5113217;28;20026;-47
2023/09/04 08:53:04;;;;;;;4.88;4.20;;;19.90;75.20;;;;;;5112757;28;20061;-44
2023/09/04 08:55:33;;;;;;;4.57;4.18;;;19.90;75.20;;;;;;5113218;28;20094;-42
2023/09/04 08:58:00;;;;;;;5.00;4.20;;;20.00;75.20;;;;;;5112704;28;20016;-41
2023/09/04 09:00:26;;;;;;;4.97;3.90;;;20.10;75.20;;;;;;5112537;28;20028;-42
2023/09/04 09:02:52;;;;;;;4.43;3.80;;;20.10;75.00;;;;;;5112906;28;20030;-40
2023/09/04 09:05:18;;;;;;;5.43;3.85;;;20.20;74.90;;;;;;5112573;28;20016;-44
2023/09/04 09:07:46;;;;;;;4.22;3.83;;;20.30;74.60;;;;;;5112754;28;20300;-44
2023/09/04 09:10:16;;;;;;;4.80;3.83;;;20.40;74.50;;;;;;5093959;28;20097;-40
2023/09/04 09:12:42;;;;;;;5.00;4.05;;;20.50;75.00;;;;;;5112704;28;20024;-43
2023/09/04 09:15:08;;;;;;;4.13;3.63;;;20.60;74.30;;;;;;5112419;28;20019;-41
2023/09/04 09:17:33;;;;;;;4.43;4.00;;;20.60;74.10;;;;;;5112563;28;20482;-41
2023/09/04 09:19:59;;;;;;;4.80;3.85;;;20.70;74.00;;;;;;5112564;28;20047;-44
2023/09/04 09:22:24;;;;;;;6.00;3.75;;;20.80;74.00;;;;;;5112315;28;20452;-44
2023/09/04 09:25:01;;;;;;;5.93;4.20;;;20.80;73.90;;;;;;5112248;28;20096;-44
2023/09/04 09:27:31;;;;;;;4.57;4.05;;;20.90;73.80;;;;;;5112017;28;20039;-42
2023/09/04 09:30:00;;;;;;;5.28;3.95;;;21.00;73.80;;;;;;5112461;28;20028;-44
2023/09/04 09:32:33;;;;;;;4.32;3.78;;;21.00;73.70;;;;;;5112049;28;20649;-41
2023/09/04 09:35:02;;;;;;;4.00;3.50;;;21.10;73.70;;;;;;5111882;28;20100;-44
2023/09/04 09:37:32;;;;;;;4.78;3.80;;;21.20;73.40;;;;;;5111811;28;20143;-42
2023/09/04 09:39:58;;;;;;;4.00;3.60;;;21.20;73.20;;;;;;5112007;28;20032;-41
2023/09/04 09:42:27;;;;;;;3.95;3.55;;;21.30;73.00;;;;;;5111959;28;20020;-40
2023/09/04 09:44:53;;;;;;;5.47;3.33;;;21.40;72.90;;;;;;5111711;28;20024;-42
2023/09/04 09:47:20;;;;;;;5.57;3.70;;;21.40;72.80;;;;;;5111748;28;20016;-43
2023/09/04 09:49:46;;;;;;;4.88;3.65;;;21.40;72.60;;;;;;5112015;28;20477;-45
2023/09/04 09:52:13;;;;;;;3.72;3.40;;;21.50;72.70;;;;;;5093357;28;20047;-44
2023/09/04 09:54:44;;;;;;;4.60;2.88;;;21.60;72.50;;;;;;5111691;28;20038;-41
2023/09/04 09:57:14;;;;;;;3.85;3.00;;;21.70;72.30;;;;;;5110685;28;20031;-42
2023/09/04 09:59:46;;;;;;;4.22;3.55;;;21.70;72.20;;;;;;5111841;28;20068;-45
2023/09/04 10:02:20;;;;;;;4.07;3.38;;;21.80;72.10;;;;;;5111326;28;20020;-42
2023/09/04 10:04:46;;;;;;;3.78;3.15;;;21.90;71.90;;;;;;5111337;28;20108;-40
2023/09/04 10:07:25;;;;;;;3.65;3.00;;;21.90;71.80;;;;;;5111399;28;20943;-43
2023/09/04 10:10:03;;;;;;;3.97;2.90;;;21.90;71.70;;;;;;5093228;28;20073;-43
2023/09/04 10:12:42;;;;;;;4.13;2.67;;;21.90;71.50;;;;;;5111730;28;20046;-45
2023/09/04 10:15:11;;;;;;;3.33;2.53;;;22.00;71.30;;;;;;5111211;28;20413;-45
2023/09/04 10:17:42;;;;;;;2.72;2.33;;;22.00;70.90;;;;;;5111106;28;20020;-44
2023/09/04 10:20:10;;;;;;;3.38;2.60;;;22.10;70.70;;;;;;5110927;28;20403;-43
2023/09/04 10:22:38;;;;;;;4.70;2.28;;;22.20;70.50;;;;;;5111264;28;20489;-44
2023/09/04 10:25:27;;;;;;;2.65;2.45;;;22.10;70.10;;;;;;5092397;28;20065;-44
2023/09/04 10:28:02;;;;;;;2.95;2.60;;;22.10;69.70;;;;;;5092373;28;20092;-45
2023/09/04 10:30:33;;;;;;;3.00;2.28;;;22.10;69.70;;;;;;5110858;28;20452;-44
2023/09/04 10:32:59;;;;;;;3.05;2.28;;;22.20;69.60;;;;;;5110927;28;20061;-45
2023/09/04 10:35:25;;;;;;;3.50;2.72;;;22.20;69.50;;;;;;5110695;28;20047;-43
2023/09/04 10:37:52;;;;;;;2.50;2.20;;;22.20;69.30;;;;;;5110886;28;20037;-45
2023/09/04 10:40:18;;;;;;;3.20;2.40;;;22.30;69.30;;;;;;5110630;28;20422;-43
2023/09/04 10:42:44;;;;;;;2.97;2.53;;;22.40;69.20;;;;;;5110661;28;20028;-44
2023/09/04 10:45:20;;;;;;;2.55;2.28;;;22.50;69.00;;;;;;5092230;28;20065;-41
2023/09/04 10:47:48;;;;;;;2.25;2.03;;;22.50;68.70;;;;;;5092381;28;20068;-43
2023/09/04 10:50:27;;;;;;;2.17;1.98;;;22.60;68.50;;;;;;5110518;28;20455;-44
2023/09/04 10:52:54;;;;;;;3.83;2.33;;;22.70;68.20;;;;;;5110354;28;20056;-43
2023/09/04 10:55:20;;;;;;;2.40;2.20;;;22.80;68.70;;;;;;5110314;28;20015;-42
2023/09/04 10:58:08;;;;;;;2.80;2.20;;;22.90;67.80;;;;;;5110445;28;20081;-45
2023/09/04 11:00:38;;;;;;;1.80;1.70;;;23.00;67.50;;;;;;5110317;28;20074;-45
2023/09/04 11:03:17;;;;;;;2.05;1.85;;;23.00;67.30;;;;;;5110352;28;20028;-45
2023/09/04 11:06:01;;;;;;;3.22;2.00;;;23.10;66.90;;;;;;5110062;28;20023;-41
2023/09/04 11:08:27;;;;;;;2.13;1.92;;;23.20;66.40;;;;;;5110034;28;20034;-37
2023/09/04 11:11:04;;;;;;;2.95;2.22;;;23.20;66.00;;;;;;5110294;28;20304;-35
2023/09/04 11:13:33;;;;;;;3.47;2.20;;;23.20;65.80;;;;;;5110081;28;20099;-44
2023/09/04 11:16:03;;;;;;;2.20;2.00;;;23.20;66.00;;;;;;5109997;28;20031;-42
2023/09/04 11:18:29;;;;;;;3.13;2.20;;;23.30;65.80;;;;;;5109923;28;20028;-42
2023/09/04 11:20:56;;;;;;;3.17;2.05;;;23.30;65.80;;;;;;5109971;28;20066;-41
2023/09/04 11:23:25;;;;;;;2.30;2.10;;;23.40;65.60;;;;;;5110113;28;20119;-43
2023/09/04 11:25:52;;;;;;;2.25;1.98;;;23.40;65.30;;;;;;5109650;28;20065;-44
2023/09/04 11:28:22;;;;;;;3.13;2.40;;;23.50;65.40;;;;;;5110510;28;20430;-39
2023/09/04 11:30:59;;;;;;;3.08;1.92;;;23.60;65.40;;;;;;5109873;28;20118;-30
2023/09/04 11:33:25;;;;;;;4.53;2.40;;;23.60;65.30;;;;;;5109939;28;20365;-29
2023/09/04 11:36:05;;;;;;;3.00;2.03;;;23.70;65.20;;;;;;5109737;28;20051;-32
2023/09/04 11:38:32;;;;;;;3.20;2.50;;;23.70;65.20;;;;;;5109751;28;20031;-30
2023/09/04 11:40:58;;;;;;;3.03;2.53;;;23.70;65.20;;;;;;5109505;28;20031;-29
2023/09/04 11:43:25;;;;;;;4.25;2.55;;;23.80;65.10;;;;;;5109587;28;20023;-32
2023/09/04 11:45:55;;;;;;;2.35;2.13;;;23.80;65.00;;;;;;5109713;28;20024;-41
2023/09/04 11:48:26;;;;;;;4.50;2.60;;;23.80;65.10;;;;;;5109431;28;20023;-42
2023/09/04 11:50:53;;;;;;;2.97;2.35;;;23.80;65.10;;;;;;5109530;28;20026;-43
2023/09/04 11:53:19;;;;;;;2.70;2.50;;;23.90;65.00;;;;;;5109758;28;20023;-44
2023/09/04 11:55:45;;;;;;;3.10;2.45;;;23.90;65.10;;;;;;5109544;28;20374;-41
2023/09/04 11:58:11;;;;;;;2.53;2.33;;;23.90;65.00;;;;;;5109462;28;20024;-40
2023/09/04 12:00:37;;;;;;;2.85;2.55;;;24.10;65.10;;;;;;5109334;28;20051;-43
2023/09/04 12:03:03;;;;;;;2.55;2.30;;;24.10;64.90;;;;;;5091157;28;20024;-44
2023/09/04 12:05:31;;;;;;;2.67;2.45;;;24.20;64.90;;;;;;5109260;28;20315;-43
2023/09/04 12:07:57;;;;;;;2.58;2.38;;;24.30;64.80;;;;;;5109534;28;20061;-31
2023/09/04 12:10:22;;;;;;;3.80;2.38;;;24.30;64.70;;;;;;5109482;28;20034;-32
2023/09/04 12:12:48;;;;;;;3.38;2.50;;;24.40;64.50;;;;;;5109293;28;20024;-30
2023/09/04 12:15:30;;;;;;;3.63;3.08;;;24.40;64.30;;;;;;5109365;28;20024;-33
2023/09/04 12:17:57;;;;;;;2.97;2.65;;;24.50;64.10;;;;;;5109417;28;20015;-43
2023/09/04 12:20:23;;;;;;;2.97;2.63;;;24.50;64.20;;;;;;5110963;28;20504;-45
2023/09/04 12:22:56;;;;;;;2.60;2.40;;;24.60;64.20;;;;;;5113451;28;20097;-43
2023/09/04 12:25:25;;;;;;;2.63;2.13;;;24.60;64.20;;;;;;5113238;28;20024;-45
2023/09/04 12:27:51;;;;;;;2.72;2.40;;;24.80;64.20;;;;;;5113332;28;20125;-43
2023/09/04 12:30:17;;;;;;;3.35;2.60;;;24.80;64.00;;;;;;5113242;28;20059;-41
2023/09/04 12:32:42;;;;;;;2.53;2.28;;;24.80;63.90;;;;;;5113776;28;20262;-42
2023/09/04 12:35:09;;;;;;;3.08;2.55;;;24.90;63.70;;;;;;5113299;28;20024;-36
2023/09/04 12:37:37;;;;;;;2.70;2.50;;;24.90;63.60;;;;;;5113317;28;20024;-34
2023/09/04 12:40:04;;;;;;;2.30;2.10;;;25.00;63.40;;;;;;5113120;28;20050;-35
2023/09/04 12:42:30;;;;;;;2.80;2.30;;;25.00;63.00;;;;;;5113021;28;20089;-30
2023/09/04 12:44:55;;;;;;;2.80;2.60;;;25.10;62.90;;;;;;5113022;28;20016;-33
2023/09/04 12:47:21;;;;;;;4.25;3.20;;;25.20;62.60;;;;;;5112908;28;20051;-44